Time;durP1;ratioP1;P1;durP2;ratioP2;P2;SDS_P1;SDS_P2;PMS_P1;PMS_P2;Temp;Humidity;BMP_temperature;BMP_pressure;BME280_temperature;BME280_humidity;BME280_pressure;Samples;Min_cycle;Max_cycle;Signal;HPM_P1;HPM_P2
2023/04/27 00:01:35;;;;;;;9.13;3.97;;;7.60;99.90;;;;;;4988579;28;20037;-90
2023/04/27 00:04:03;;;;;;;7.38;4.10;;;7.50;99.90;;;;;;5005161;28;20017;-90
2023/04/27 00:06:29;;;;;;;8.80;3.90;;;7.50;99.90;;;;;;5021980;28;20037;-94
2023/04/27 00:08:54;;;;;;;8.73;4.07;;;7.50;99.90;;;;;;5005425;28;20471;-93
2023/04/27 00:11:22;;;;;;;8.18;4.25;;;7.40;99.90;;;;;;5021923;28;20037;-94
2023/04/27 00:13:48;;;;;;;9.23;4.00;;;7.40;99.90;;;;;;4989627;28;20021;-95
2023/04/27 00:16:13;;;;;;;9.60;4.32;;;7.40;99.90;;;;;;5005029;28;20037;-94
2023/04/27 00:18:39;;;;;;;9.57;4.10;;;7.40;99.90;;;;;;5004998;28;20071;-93
2023/04/27 00:21:05;;;;;;;9.68;4.53;;;7.30;99.90;;;;;;4989386;28;20494;-93
2023/04/27 00:23:31;;;;;;;8.50;4.70;;;7.30;99.90;;;;;;5006111;28;20021;-93
2023/04/27 00:25:57;;;;;;;10.48;4.70;;;7.30;99.90;;;;;;4989178;28;20091;-95
2023/04/27 00:28:22;;;;;;;9.55;4.93;;;7.20;99.90;;;;;;5004630;28;20026;-91
2023/04/27 00:30:48;;;;;;;11.95;4.28;;;7.20;99.90;;;;;;4988381;28;20474;-93
2023/04/27 00:33:15;;;;;;;10.63;5.70;;;7.20;99.90;;;;;;5005303;28;20032;-94
2023/04/27 00:35:41;;;;;;;8.00;4.55;;;7.20;99.90;;;;;;5005847;28;20041;-92
2023/04/27 00:38:07;;;;;;;9.90;4.53;;;7.10;99.90;;;;;;5022785;28;20022;-92
2023/04/27 00:40:32;;;;;;;9.63;4.53;;;7.10;99.90;;;;;;5005693;28;20025;-94
2023/04/27 00:42:58;;;;;;;9.27;4.22;;;7.00;99.90;;;;;;4988291;28;20092;-93
2023/04/27 00:45:24;;;;;;;10.38;5.00;;;7.00;99.90;;;;;;4988068;28;20021;-90
2023/04/27 00:47:50;;;;;;;10.95;4.68;;;7.00;99.90;;;;;;4987892;28;20052;-90
2023/04/27 00:50:16;;;;;;;9.15;4.55;;;6.90;99.90;;;;;;4987544;28;20470;-90
2023/04/27 00:52:43;;;;;;;8.75;5.35;;;6.90;99.90;;;;;;5019973;28;20030;-89
2023/04/27 00:55:08;;;;;;;13.73;5.15;;;6.90;99.90;;;;;;5004392;28;20032;-90
2023/04/27 00:57:34;;;;;;;7.05;4.50;;;6.90;99.90;;;;;;5020376;28;20379;-93
2023/04/27 01:00:01;;;;;;;10.05;4.60;;;6.80;99.90;;;;;;5004477;28;20022;-90
2023/04/27 01:02:28;;;;;;;8.38;4.75;;;6.80;99.90;;;;;;5020902;28;20079;-91
2023/04/27 01:04:54;;;;;;;9.75;4.63;;;6.70;99.90;;;;;;5004265;28;20021;-90
2023/04/27 01:07:24;;;;;;;8.48;4.60;;;6.70;99.90;;;;;;5004156;28;20057;-90
2023/04/27 01:09:50;;;;;;;7.90;4.70;;;6.70;99.90;;;;;;5020002;28;20032;-90
2023/04/27 01:12:17;;;;;;;8.00;4.40;;;6.60;99.90;;;;;;5020414;28;20406;-90
2023/04/27 01:14:43;;;;;;;10.15;4.53;;;6.60;99.90;;;;;;5006730;28;20036;-89
2023/04/27 01:17:09;;;;;;;9.57;4.45;;;6.60;99.90;;;;;;5007559;28;20393;-90
2023/04/27 01:19:35;;;;;;;8.55;4.82;;;6.60;99.90;;;;;;5023698;28;20105;-90
2023/04/27 01:22:00;;;;;;;9.20;4.30;;;6.60;99.90;;;;;;4990821;28;20159;-90
2023/04/27 01:24:26;;;;;;;11.63;4.57;;;6.60;99.90;;;;;;5005761;28;20539;-89
2023/04/27 01:26:58;;;;;;;8.13;4.63;;;6.50;99.90;;;;;;5005156;28;20032;-91
2023/04/27 01:29:24;;;;;;;10.30;4.93;;;6.50;99.90;;;;;;4988582;28;20072;-90
2023/04/27 01:31:50;;;;;;;11.18;4.60;;;6.50;99.90;;;;;;4986767;28;20123;-89
2023/04/27 01:34:16;;;;;;;10.07;4.72;;;6.40;99.90;;;;;;4987233;28;20038;-93
2023/04/27 01:36:42;;;;;;;6.50;4.00;;;6.40;99.90;;;;;;4994890;28;20036;-90
2023/04/27 01:39:08;;;;;;;7.57;4.10;;;6.40;99.90;;;;;;5003345;28;20041;-89
2023/04/27 01:41:36;;;;;;;11.15;5.65;;;6.30;99.90;;;;;;5036449;28;20033;-88
2023/04/27 01:44:02;;;;;;;9.55;4.50;;;6.30;99.90;;;;;;5015949;28;20079;-93
2023/04/27 01:46:28;;;;;;;6.72;3.83;;;6.20;99.90;;;;;;4987627;28;20136;-94
2023/04/27 01:48:53;;;;;;;9.30;4.82;;;6.10;99.90;;;;;;4987231;28;20037;-90
2023/04/27 01:51:20;;;;;;;10.35;4.63;;;6.10;99.90;;;;;;4986164;28;20034;-91
2023/04/27 01:53:45;;;;;;;10.13;4.78;;;6.10;99.90;;;;;;5001871;28;20120;-90
2023/04/27 01:56:11;;;;;;;11.68;6.05;;;6.10;99.90;;;;;;5019170;28;20068;-89
2023/04/27 01:58:38;;;;;;;8.68;4.90;;;6.00;99.90;;;;;;5002181;28;20503;-90
2023/04/27 02:01:04;;;;;;;9.07;5.10;;;6.00;99.90;;;;;;5002131;28;20026;-91
2023/04/27 02:03:30;;;;;;;10.15;4.72;;;6.00;99.90;;;;;;4986466;28;20022;-92
2023/04/27 02:05:55;;;;;;;13.77;5.72;;;5.90;99.90;;;;;;5002946;28;20022;-92
2023/04/27 02:08:21;;;;;;;8.90;4.90;;;5.90;99.90;;;;;;5019119;28;20029;-92
2023/04/27 02:10:47;;;;;;;9.70;5.18;;;5.90;99.90;;;;;;4986327;28;20080;-92
2023/04/27 02:13:13;;;;;;;9.52;5.00;;;5.90;99.90;;;;;;5002545;28;20034;-93
2023/04/27 02:15:39;;;;;;;11.30;5.25;;;5.90;99.90;;;;;;4986155;28;20183;-93
2023/04/27 02:18:05;;;;;;;9.70;5.57;;;5.80;99.90;;;;;;5002271;28;20026;-93
2023/04/27 02:20:31;;;;;;;10.40;5.13;;;5.80;99.90;;;;;;5002577;28;20104;-92
2023/04/27 02:22:57;;;;;;;10.88;5.32;;;5.90;99.90;;;;;;5019101;28;20089;-93
2023/04/27 02:25:23;;;;;;;10.05;5.22;;;5.80;99.90;;;;;;5002420;28;20057;-93
2023/04/27 02:27:49;;;;;;;9.85;4.68;;;5.80;99.90;;;;;;5003571;28;20467;-93
2023/04/27 02:30:16;;;;;;;11.77;5.47;;;5.80;99.90;;;;;;5002999;28;20038;-93
2023/04/27 02:32:42;;;;;;;7.82;5.40;;;5.80;99.90;;;;;;5005596;28;20108;-94
2023/04/27 02:35:09;;;;;;;12.23;5.40;;;5.70;99.90;;;;;;4990075;28;20029;-94
2023/04/27 02:37:35;;;;;;;12.35;5.60;;;5.70;99.90;;;;;;5018411;28;20017;-93
2023/04/27 02:40:01;;;;;;;9.10;5.20;;;5.70;99.90;;;;;;4986816;28;20113;-93
2023/04/27 02:42:28;;;;;;;8.68;5.00;;;5.60;99.90;;;;;;5019188;28;20041;-93
2023/04/27 02:44:54;;;;;;;8.20;5.07;;;5.60;99.90;;;;;;5019118;28;20029;-93
2023/04/27 02:47:19;;;;;;;12.73;5.20;;;5.60;99.90;;;;;;5002070;28;20482;-94
2023/04/27 02:49:45;;;;;;;10.75;5.22;;;5.60;99.90;;;;;;4988087;28;20029;-90
2023/04/27 02:52:11;;;;;;;13.90;5.82;;;5.50;99.90;;;;;;4986391;28;20132;-90
2023/04/27 02:54:36;;;;;;;11.30;5.72;;;5.50;99.90;;;;;;5001121;28;20061;-90
2023/04/27 02:57:02;;;;;;;11.73;5.30;;;5.50;99.90;;;;;;5001852;28;20124;-91
2023/04/27 02:59:28;;;;;;;11.00;5.10;;;5.50;99.90;;;;;;5001525;28;20030;-89
2023/04/27 03:01:53;;;;;;;10.20;5.22;;;5.40;99.90;;;;;;4985330;28;20030;-89
2023/04/27 03:04:19;;;;;;;8.73;5.00;;;5.40;99.90;;;;;;5018108;28;20132;-89
2023/04/27 03:06:45;;;;;;;9.57;6.22;;;5.30;99.90;;;;;;5001477;28;20028;-90
2023/04/27 03:09:11;;;;;;;7.57;4.82;;;5.40;99.90;;;;;;5001702;28;20041;-90
2023/04/27 03:11:38;;;;;;;12.07;5.18;;;5.30;99.90;;;;;;5001141;28;20112;-90
2023/04/27 03:14:04;;;;;;;14.48;6.38;;;5.30;99.90;;;;;;5017937;28;20482;-94
2023/04/27 03:16:34;;;;;;;12.90;5.53;;;5.20;99.90;;;;;;5001577;28;20037;-95
2023/04/27 03:19:00;;;;;;;9.75;6.10;;;5.20;99.90;;;;;;5001378;28;20498;-95
2023/04/27 03:21:26;;;;;;;9.15;5.45;;;5.20;99.90;;;;;;4985657;28;20032;-95
2023/04/27 03:23:52;;;;;;;8.55;5.90;;;5.20;99.90;;;;;;5017647;28;20022;-91
2023/04/27 03:26:19;;;;;;;9.30;5.80;;;5.20;99.90;;;;;;5006095;28;20029;-94
2023/04/27 03:28:45;;;;;;;9.13;5.22;;;5.10;99.90;;;;;;4997780;28;20104;-94
2023/04/27 03:31:12;;;;;;;11.20;5.47;;;5.10;99.90;;;;;;5012334;28;20041;-92
2023/04/27 03:33:38;;;;;;;11.00;5.95;;;5.10;99.90;;;;;;5026710;28;20030;-93
2023/04/27 03:36:05;;;;;;;8.82;5.85;;;5.10;99.90;;;;;;5025172;28;20478;-92
2023/04/27 03:38:32;;;;;;;9.98;5.57;;;5.10;99.90;;;;;;5008904;28;20080;-92
2023/04/27 03:40:57;;;;;;;8.73;5.55;;;5.10;99.90;;;;;;5011593;28;20058;-90
2023/04/27 03:43:24;;;;;;;8.95;5.43;;;5.00;99.90;;;;;;4992944;28;20032;-93
2023/04/27 03:45:50;;;;;;;10.02;5.25;;;5.00;99.90;;;;;;5017137;28;20041;-93
2023/04/27 03:48:16;;;;;;;10.00;5.32;;;5.00;99.90;;;;;;5017618;28;20034;-93
2023/04/27 03:50:42;;;;;;;8.95;4.85;;;5.00;99.90;;;;;;4984825;28;20057;-90
2023/04/27 03:53:09;;;;;;;10.57;5.97;;;4.90;99.90;;;;;;5000905;28;20021;-89
2023/04/27 03:55:39;;;;;;;10.57;5.40;;;4.90;99.90;;;;;;5017478;28;20033;-89
2023/04/27 03:58:05;;;;;;;11.63;5.57;;;4.90;99.90;;;;;;5017341;28;20144;-89
2023/04/27 04:00:32;;;;;;;9.80;5.78;;;4.90;99.90;;;;;;5017480;28;20021;-94
2023/04/27 04:02:57;;;;;;;8.63;5.20;;;4.80;99.90;;;;;;4985150;28;20021;-93
2023/04/27 04:05:23;;;;;;;8.43;5.40;;;4.80;99.90;;;;;;4984578;28;20359;-93
2023/04/27 04:07:49;;;;;;;9.63;5.40;;;4.80;99.90;;;;;;5024357;28;20021;-93
2023/04/27 04:10:15;;;;;;;11.85;5.90;;;4.90;99.90;;;;;;5018381;28;20026;-88
2023/04/27 04:12:40;;;;;;;9.75;5.63;;;4.80;99.90;;;;;;4986631;28;20041;-89
2023/04/27 04:15:06;;;;;;;9.70;5.57;;;4.90;99.90;;;;;;5017637;28;20028;-93
2023/04/27 04:17:32;;;;;;;9.40;5.70;;;4.80;99.90;;;;;;5005258;28;20033;-90
2023/04/27 04:19:59;;;;;;;9.73;5.63;;;4.80;99.90;;;;;;5004895;28;20017;-92
2023/04/27 04:22:25;;;;;;;11.57;5.45;;;4.80;99.90;;;;;;5021285;28;20018;-93
2023/04/27 04:24:51;;;;;;;10.32;5.88;;;4.80;99.90;;;;;;5004789;28;20031;-93
2023/04/27 04:27:17;;;;;;;11.25;6.75;;;4.80;99.90;;;;;;4988634;28;20080;-93
2023/04/27 04:29:42;;;;;;;11.45;6.15;;;4.80;99.90;;;;;;5020535;28;20033;-94
2023/04/27 04:32:08;;;;;;;10.52;6.13;;;4.80;99.90;;;;;;4988185;28;20029;-90
2023/04/27 04:34:35;;;;;;;15.43;7.20;;;4.80;99.90;;;;;;4988057;28;20040;-93
2023/04/27 04:37:00;;;;;;;12.27;7.20;;;4.80;99.90;;;;;;5008223;28;20032;-90
2023/04/27 04:39:31;;;;;;;9.63;6.68;;;4.80;99.90;;;;;;5018721;28;20033;-93
2023/04/27 04:41:56;;;;;;;14.88;7.53;;;4.80;99.90;;;;;;5019763;28;20025;-91
2023/04/27 04:44:22;;;;;;;13.93;7.13;;;4.80;99.90;;;;;;5002488;28;20026;-93
2023/04/27 04:46:48;;;;;;;12.10;7.72;;;4.80;99.90;;;;;;5017882;28;20056;-94
2023/04/27 04:49:13;;;;;;;21.42;8.23;;;4.80;99.90;;;;;;5031303;28;20476;-90
2023/04/27 04:51:46;;;;;;;12.15;7.43;;;4.80;99.90;;;;;;4987791;28;20025;-91
2023/04/27 04:54:11;;;;;;;14.13;8.60;;;4.80;99.90;;;;;;5004651;28;20391;-90
2023/04/27 04:56:37;;;;;;;12.82;8.90;;;4.90;99.90;;;;;;4988788;28;20029;-94
2023/04/27 04:59:03;;;;;;;17.50;8.43;;;4.80;99.90;;;;;;5006031;28;20048;-93
2023/04/27 05:01:29;;;;;;;16.30;8.55;;;4.90;99.90;;;;;;5023770;28;20138;-94
2023/04/27 05:03:54;;;;;;;17.00;8.50;;;4.90;99.90;;;;;;4995453;28;20033;-92
2023/04/27 05:06:20;;;;;;;14.55;8.13;;;4.90;99.90;;;;;;5009059;28;20036;-94
2023/04/27 05:08:46;;;;;;;12.60;8.07;;;4.90;99.90;;;;;;5019896;28;20025;-93
2023/04/27 05:11:12;;;;;;;15.35;8.55;;;4.90;99.90;;;;;;5019965;28;20490;-93
2023/04/27 05:13:39;;;;;;;14.32;8.45;;;5.00;99.90;;;;;;5003440;28;20029;-94
2023/04/27 05:16:05;;;;;;;14.82;8.68;;;5.00;99.90;;;;;;5019799;28;20032;-93
2023/04/27 05:18:31;;;;;;;15.88;9.40;;;5.00;99.90;;;;;;5003293;28;20099;-93
2023/04/27 05:20:57;;;;;;;21.05;9.50;;;5.00;99.90;;;;;;5004572;28;20042;-93
2023/04/27 05:23:22;;;;;;;13.75;9.00;;;5.00;99.90;;;;;;4987237;28;20060;-93
2023/04/27 05:25:48;;;;;;;14.98;9.57;;;5.10;99.90;;;;;;4987592;28;20026;-92
2023/04/27 05:28:15;;;;;;;15.43;8.38;;;5.10;99.90;;;;;;5018234;28;20021;-93
2023/04/27 05:30:40;;;;;;;15.57;9.18;;;5.10;99.90;;;;;;5011080;28;20033;-89
2023/04/27 05:33:06;;;;;;;13.15;8.43;;;5.10;99.90;;;;;;5031159;28;20033;-90
2023/04/27 05:35:32;;;;;;;14.63;8.18;;;5.10;99.90;;;;;;5024889;28;20033;-90
2023/04/27 05:37:58;;;;;;;15.10;9.45;;;5.20;99.90;;;;;;5039307;28;20021;-90
2023/04/27 05:40:24;;;;;;;13.95;8.18;;;5.20;99.90;;;;;;5003935;28;20049;-90
2023/04/27 05:42:50;;;;;;;14.30;8.40;;;5.20;99.90;;;;;;5003034;28;20022;-91
2023/04/27 05:45:16;;;;;;;14.43;8.32;;;5.30;99.90;;;;;;5002842;28;20375;-90
2023/04/27 05:47:42;;;;;;;14.27;8.40;;;5.30;99.90;;;;;;5018814;28;20022;-89
2023/04/27 05:50:08;;;;;;;12.80;7.43;;;5.30;99.90;;;;;;5018740;28;20025;-90
2023/04/27 05:52:35;;;;;;;13.93;7.78;;;5.40;99.90;;;;;;5002085;28;20041;-89
2023/04/27 05:55:00;;;;;;;10.70;6.95;;;5.40;99.90;;;;;;5018958;28;20022;-89
2023/04/27 05:57:26;;;;;;;12.77;7.47;;;5.50;99.90;;;;;;5002721;28;20032;-89
2023/04/27 05:59:52;;;;;;;16.20;7.00;;;5.50;99.90;;;;;;4986277;28;20048;-90
2023/04/27 06:02:18;;;;;;;14.68;6.82;;;5.60;99.90;;;;;;5036111;28;20021;-90
2023/04/27 06:04:45;;;;;;;10.75;6.22;;;5.60;99.90;;;;;;5002242;28;20030;-89
2023/04/27 06:07:13;;;;;;;11.63;7.07;;;5.60;99.90;;;;;;5019571;28;20028;-90
2023/04/27 06:09:40;;;;;;;11.20;5.95;;;5.60;99.90;;;;;;5003736;28;20489;-89
2023/04/27 06:12:06;;;;;;;11.98;6.60;;;5.60;99.90;;;;;;5003637;28;20026;-93
2023/04/27 06:14:34;;;;;;;10.05;6.07;;;5.70;99.90;;;;;;5019803;28;20481;-93
2023/04/27 06:17:00;;;;;;;10.55;6.18;;;5.70;99.90;;;;;;5018920;28;20029;-94
2023/04/27 06:19:26;;;;;;;12.32;5.95;;;5.80;99.90;;;;;;5018994;28;20033;-93
2023/04/27 06:21:54;;;;;;;10.57;5.72;;;5.80;99.90;;;;;;5018988;28;20022;-93
2023/04/27 06:24:20;;;;;;;10.32;5.50;;;5.90;99.90;;;;;;5019237;28;20087;-93
2023/04/27 06:26:46;;;;;;;13.43;5.35;;;5.90;99.90;;;;;;5002959;28;20029;-93
2023/04/27 06:29:12;;;;;;;10.02;5.35;;;6.00;99.90;;;;;;5002090;28;20036;-90
2023/04/27 06:31:38;;;;;;;11.32;5.70;;;6.00;99.90;;;;;;5018665;28;20021;-93
2023/04/27 06:34:03;;;;;;;11.32;5.70;;;6.10;99.90;;;;;;5002293;28;20142;-94
2023/04/27 06:36:30;;;;;;;12.80;5.80;;;6.10;99.90;;;;;;4986310;28;20029;-92
2023/04/27 06:38:56;;;;;;;11.23;5.00;;;6.20;99.90;;;;;;5003046;28;20125;-92
2023/04/27 06:41:24;;;;;;;11.60;5.07;;;6.20;99.90;;;;;;5008068;28;20052;-92
2023/04/27 06:43:53;;;;;;;11.18;6.43;;;6.20;99.90;;;;;;5026268;28;20079;-92
2023/04/27 06:46:19;;;;;;;9.57;5.18;;;6.40;99.90;;;;;;5010367;28;20045;-89
2023/04/27 06:48:45;;;;;;;10.13;5.75;;;6.40;99.90;;;;;;5002444;28;20032;-90
2023/04/27 06:51:12;;;;;;;11.57;5.65;;;6.50;99.90;;;;;;5003955;28;20029;-89
2023/04/27 06:53:38;;;;;;;12.90;5.18;;;6.60;99.90;;;;;;5019064;28;20017;-90
2023/04/27 06:56:05;;;;;;;12.80;5.93;;;6.60;99.90;;;;;;4985656;28;20029;-90
2023/04/27 06:58:31;;;;;;;11.13;6.05;;;6.70;99.90;;;;;;5001619;28;20405;-90
2023/04/27 07:00:57;;;;;;;12.55;5.80;;;6.70;99.90;;;;;;5001927;28;20112;-90
2023/04/27 07:03:23;;;;;;;10.20;5.10;;;6.80;99.90;;;;;;5001835;28;20053;-94
2023/04/27 07:05:50;;;;;;;12.60;5.60;;;6.80;99.90;;;;;;5018053;28;20390;-94
2023/04/27 07:08:16;;;;;;;14.73;5.82;;;6.90;99.90;;;;;;5002301;28;20025;-94
2023/04/27 07:10:42;;;;;;;10.70;5.25;;;7.00;99.90;;;;;;5017525;28;20044;-94
2023/04/27 07:13:07;;;;;;;8.30;5.15;;;7.10;99.90;;;;;;5002185;28;20031;-95
2023/04/27 07:15:33;;;;;;;12.13;5.03;;;7.20;99.90;;;;;;5003286;28;20030;-93
2023/04/27 07:17:59;;;;;;;13.52;6.22;;;7.30;99.90;;;;;;5006598;28;20026;-94
2023/04/27 07:20:25;;;;;;;10.95;5.50;;;7.40;99.90;;;;;;5007698;28;20512;-92
2023/04/27 07:22:51;;;;;;;11.27;5.50;;;7.50;99.90;;;;;;5006405;28;20025;-93
2023/04/27 07:25:17;;;;;;;14.05;5.00;;;7.60;99.90;;;;;;5002565;28;20022;-94
2023/04/27 07:27:44;;;;;;;13.45;6.90;;;7.70;99.90;;;;;;5002452;28;20406;-95
2023/04/27 07:30:12;;;;;;;13.00;5.15;;;7.80;99.90;;;;;;5021918;28;20119;-93
2023/04/27 07:32:42;;;;;;;8.05;4.63;;;7.90;99.90;;;;;;5003255;28;20022;-94
2023/04/27 07:35:08;;;;;;;8.25;3.80;;;8.00;99.90;;;;;;5019695;28;20133;-93
2023/04/27 07:37:36;;;;;;;8.18;4.18;;;8.00;99.90;;;;;;5020149;28;20029;-90
2023/04/27 07:40:04;;;;;;;6.72;3.08;;;8.10;99.90;;;;;;5019592;28;20112;-90
2023/04/27 07:42:30;;;;;;;11.15;4.47;;;8.20;99.90;;;;;;5017617;28;20430;-89
2023/04/27 07:44:56;;;;;;;8.82;3.67;;;8.30;99.90;;;;;;4986005;28;20032;-89
2023/04/27 07:47:22;;;;;;;11.07;4.10;;;8.40;99.90;;;;;;4986639;28;20048;-89
2023/04/27 07:49:48;;;;;;;9.52;3.47;;;8.50;99.90;;;;;;5003123;28;20037;-90
2023/04/27 07:52:14;;;;;;;10.07;4.00;;;8.50;99.90;;;;;;5005993;28;20029;-92
2023/04/27 07:54:40;;;;;;;6.45;3.88;;;8.60;99.90;;;;;;5006323;28;20049;-93
2023/04/27 07:57:10;;;;;;;7.85;3.50;;;8.70;99.90;;;;;;5016492;23;20057;-83
2023/04/27 07:59:36;;;;;;;11.40;3.90;;;8.80;99.90;;;;;;5017566;28;20034;-84
2023/04/27 08:02:02;;;;;;;7.50;4.30;;;8.90;99.90;;;;;;5016718;28;20022;-84
2023/04/27 08:04:30;;;;;;;7.75;4.15;;;9.10;99.90;;;;;;4967048;28;20366;-83
2023/04/27 08:06:56;;;;;;;8.30;3.65;;;9.20;99.90;;;;;;4983371;28;20032;-82
2023/04/27 08:09:22;;;;;;;8.55;3.67;;;9.30;99.90;;;;;;4997879;28;20034;-82
2023/04/27 08:11:47;;;;;;;6.95;3.72;;;9.40;99.90;;;;;;4965165;28;20070;-84
2023/04/27 08:14:13;;;;;;;7.28;3.17;;;9.50;99.90;;;;;;4964152;28;20030;-83
2023/04/27 08:16:40;;;;;;;6.63;3.08;;;9.60;99.90;;;;;;4978781;28;20036;-82
2023/04/27 08:19:08;;;;;;;8.38;2.80;;;9.70;99.90;;;;;;4980636;28;20026;-83
2023/04/27 08:21:34;;;;;;;6.70;2.70;;;9.80;99.90;;;;;;5001026;28;20030;-83
2023/04/27 08:24:00;;;;;;;9.75;2.90;;;9.80;99.90;;;;;;5002962;28;20030;-83
2023/04/27 08:26:25;;;;;;;6.32;3.15;;;9.90;99.90;;;;;;4975135;28;20030;-84
2023/04/27 08:28:51;;;;;;;12.02;3.05;;;9.90;99.90;;;;;;4979905;28;20078;-83
2023/04/27 08:31:17;;;;;;;5.43;2.90;;;10.00;99.90;;;;;;4999167;28;20531;-83
2023/04/27 08:33:43;;;;;;;7.90;2.70;;;10.10;99.90;;;;;;5017501;28;20052;-85
2023/04/27 08:36:09;;;;;;;7.63;3.58;;;10.20;99.90;;;;;;4986914;28;20029;-84
2023/04/27 08:38:34;;;;;;;6.80;2.92;;;10.30;99.90;;;;;;4996395;28;20042;-89
2023/04/27 08:41:00;;;;;;;6.85;2.30;;;10.30;99.90;;;;;;4998268;28;20132;-83
2023/04/27 08:43:31;;;;;;;6.22;2.45;;;10.40;99.90;;;;;;4989377;28;20093;-86
2023/04/27 08:45:56;;;;;;;7.90;2.30;;;10.50;99.90;;;;;;4993560;28;20026;-86
2023/04/27 08:48:22;;;;;;;4.97;2.60;;;10.50;99.50;;;;;;5005991;28;20033;-88
2023/04/27 08:50:52;;;;;;;8.13;2.70;;;10.60;99.50;;;;;;5002196;28;20019;-83
2023/04/27 08:53:25;;;;;;;7.80;2.80;;;10.70;99.60;;;;;;4986951;28;20038;-84
2023/04/27 08:55:56;;;;;;;5.90;2.80;;;10.80;99.40;;;;;;5004274;28;20104;-83
2023/04/27 08:58:34;;;;;;;6.38;3.05;;;10.80;99.10;;;;;;4997466;28;20059;-84
2023/04/27 09:01:05;;;;;;;4.95;2.90;;;10.90;99.20;;;;;;5029111;28;20098;-85
2023/04/27 09:03:31;;;;;;;6.93;2.78;;;11.00;99.30;;;;;;5051818;28;20030;-83
2023/04/27 09:05:57;;;;;;;4.05;2.28;;;11.00;99.20;;;;;;5039914;28;20105;-83
2023/04/27 09:08:22;;;;;;;6.55;2.30;;;11.10;97.40;;;;;;5018711;28;20385;-84
2023/04/27 09:10:50;;;;;;;6.30;2.20;;;11.20;96.50;;;;;;4998689;28;20061;-84
2023/04/27 09:13:16;;;;;;;5.90;2.50;;;11.20;96.70;;;;;;5014875;28;20026;-85
2023/04/27 09:15:44;;;;;;;7.97;2.40;;;11.30;96.90;;;;;;5012791;28;20033;-84
2023/04/27 09:18:21;;;;;;;6.47;2.30;;;11.40;97.00;;;;;;5056396;28;20101;-84
2023/04/27 09:20:51;;;;;;;5.07;2.22;;;11.40;95.40;;;;;;5037228;28;20031;-86
2023/04/27 09:23:29;;;;;;;11.60;3.35;;;11.50;95.10;;;;;;5000983;28;20044;-85
2023/04/27 09:25:59;;;;;;;7.75;2.33;;;11.50;93.70;;;;;;5027233;28;20096;-85
2023/04/27 09:28:27;;;;;;;6.50;2.20;;;11.50;93.20;;;;;;5038267;28;20090;-85
2023/04/27 09:30:55;;;;;;;6.13;2.28;;;11.60;93.70;;;;;;5043444;28;20033;-86
2023/04/27 09:33:28;;;;;;;7.68;2.80;;;11.70;93.20;;;;;;5034234;28;20128;-85
2023/04/27 09:35:55;;;;;;;5.25;2.35;;;11.80;93.30;;;;;;5018157;28;20021;-85
2023/04/27 09:38:22;;;;;;;5.00;2.60;;;11.80;92.10;;;;;;5010505;28;20367;-85
2023/04/27 09:40:49;;;;;;;6.53;2.70;;;11.90;91.90;;;;;;5002886;28;20456;-85
2023/04/27 09:43:15;;;;;;;6.57;2.40;;;12.00;91.60;;;;;;5014974;28;20028;-85
2023/04/27 09:45:42;;;;;;;5.90;2.58;;;12.00;91.90;;;;;;4997237;28;20437;-84
2023/04/27 09:48:08;;;;;;;9.77;2.63;;;12.10;92.10;;;;;;5036955;28;20033;-86
2023/04/27 09:50:39;;;;;;;5.13;2.83;;;12.20;90.50;;;;;;5003677;28;20029;-85
2023/04/27 09:53:09;;;;;;;;;;;12.20;90.60;;;;;;5018205;28;20022;-85
2023/04/27 09:56:00;;;;;;;5.82;2.85;;;12.20;89.30;;;;;;5021292;28;19905;-86
2023/04/27 09:58:47;;;;;;;9.82;2.88;;;12.30;90.40;;;;;;5013725;28;20137;-84
2023/04/27 10:01:40;;;;;;;6.70;2.70;;;12.40;90.80;;;;;;5014330;28;20810;-84
2023/04/27 10:04:11;;;;;;;6.05;3.10;;;12.50;90.90;;;;;;5013657;28;20029;-84
2023/04/27 10:06:46;;;;;;;4.72;2.50;;;12.60;91.10;;;;;;5015131;28;20101;-83
2023/04/27 10:09:11;;;;;;;5.57;2.55;;;12.70;91.50;;;;;;5015379;28;20040;-83
2023/04/27 10:11:46;;;;;;;4.95;2.75;;;12.70;88.90;;;;;;5013614;28;20390;-89
2023/04/27 10:14:58;;;;;;;;;;;;;;;;;;;;;
2023/04/27 10:17:45;;;;;;;;;;;;;;;;;;;;;
2023/04/27 10:20:16;;;;;;;7.13;3.05;;;12.90;86.20;;;;;;5036406;28;20584;-91
2023/04/27 10:22:53;;;;;;;5.60;2.40;;;13.00;84.30;;;;;;5019357;28;20045;-90
2023/04/27 10:25:38;;;;;;;;;;;;;;;;;;;;;
2023/04/27 10:28:49;;;;;;;;;;;;;;;;;;;;;
2023/04/27 10:34:47;;;;;;;5.80;2.65;;;13.10;79.10;;;;;;4960707;28;20066;-90
2023/04/27 10:37:53;;;;;;;7.22;3.17;;;13.20;80.80;;;;;;4958207;28;20035;-90
2023/04/27 10:41:04;;;;;;;6.22;2.70;;;13.30;81.30;;;;;;4973197;28;20425;-91
2023/04/27 10:44:16;;;;;;;7.10;2.50;;;13.40;82.30;;;;;;4973148;28;20027;-91
2023/04/27 10:50:48;;;;;;;;;;;;;;;;;;;;;
2023/04/27 10:56:52;;;;;;;4.97;2.65;;;13.80;78.40;;;;;;4939604;29;20212;-90
2023/04/27 11:00:12;;;;;;;;;;;;;;;;;;;;;
2023/04/27 11:03:52;;;;;;;;;;;;;;;;;;;;;
2023/04/27 11:07:00;;;;;;;;;;;;;;;;;;;;;
2023/04/27 11:10:11;;;;;;;;;;;;;;;;;;;;;
2023/04/27 11:13:32;;;;;;;26.45;13.27;;;14.00;76.00;;;;;;4963839;28;20034;-91
2023/04/27 11:20:06;;;;;;;;;;;;;;;;;;;;;
2023/04/27 11:23:29;;;;;;;;;;;;;;;;;;;;;
2023/04/27 11:27:24;;;;;;;;;;;;;;;;;;;;;
2023/04/27 11:29:46;;;;;;;8.38;5.43;;;14.40;73.00;;;;;;4931214;29;20063;-91
2023/04/27 11:33:12;;;;;;;6.53;3.55;;;14.60;74.40;;;;;;4992903;28;20049;-95
2023/04/27 11:36:22;;;;;;;5.38;3.38;;;14.70;74.50;;;;;;5016036;28;20557;-91
2023/04/27 11:39:27;;;;;;;6.78;3.05;;;14.80;74.50;;;;;;4984782;28;20049;-90
2023/04/27 11:42:56;;;;;;;7.03;3.15;;;14.90;73.20;;;;;;5016971;28;20155;-91
2023/04/27 11:45:58;;;;;;;;;;;;;;;;;;;;;
2023/04/27 11:49:14;;;;;;;5.60;3.05;;;14.70;67.30;;;;;;5058674;28;20400;-91
2023/04/27 11:51:56;;;;;;;;;;;;;;;;;;;;;
2023/04/27 11:54:40;;;;;;;;;;;;;;;;;;;;;
2023/04/27 11:57:12;;;;;;;7.03;3.40;;;14.90;70.00;;;;;;5039262;28;20060;-90
2023/04/27 12:00:30;;;;;;;8.40;3.25;;;15.00;70.80;;;;;;5040519;28;20044;-91
2023/04/27 12:06:19;;;;;;;;;;;;;;;;;;;;;
2023/04/27 12:09:35;;;;;;;;;;;;;;;;;;;;;
2023/04/27 12:15:12;;;;;;;6.85;3.72;;;15.40;64.00;;;;;;5073629;28;20052;-91
2023/04/27 12:18:01;;;;;;;;;;;;;;;;;;;;;
2023/04/27 12:20:39;;;;;;;6.95;3.42;;;15.30;66.80;;;;;;5061674;28;20139;-92
2023/04/27 12:23:17;;;;;;;;;;;;;;;;;;;;;
2023/04/27 12:25:56;;;;;;;8.23;3.38;;;15.40;67.60;;;;;;5042205;28;20092;-92
2023/04/27 12:28:32;;;;;;;5.88;3.22;;;15.50;67.90;;;;;;5015309;28;20071;-89
2023/04/27 12:30:58;;;;;;;6.47;3.70;;;15.60;67.80;;;;;;5008814;28;20056;-85
2023/04/27 12:33:24;;;;;;;6.65;2.95;;;15.60;66.10;;;;;;5021901;28;20064;-85
2023/04/27 12:35:52;;;;;;;4.57;2.83;;;15.70;67.70;;;;;;5055813;28;20090;-89
2023/04/27 12:38:18;;;;;;;5.30;2.80;;;15.90;68.40;;;;;;5029162;28;20029;-88
2023/04/27 12:40:44;;;;;;;6.30;2.92;;;16.00;68.50;;;;;;4992419;28;20026;-86
2023/04/27 12:43:11;;;;;;;7.60;3.67;;;16.20;68.40;;;;;;4983509;28;20026;-86
2023/04/27 12:45:37;;;;;;;4.20;2.72;;;16.30;67.80;;;;;;4999601;28;20033;-85
2023/04/27 12:48:03;;;;;;;4.03;2.55;;;16.40;67.40;;;;;;5017444;28;20030;-86
2023/04/27 12:50:30;;;;;;;5.55;2.65;;;16.50;67.00;;;;;;4986752;28;20029;-87
2023/04/27 12:52:56;;;;;;;5.85;2.80;;;16.60;67.70;;;;;;5019239;28;20017;-87
2023/04/27 12:55:22;;;;;;;3.33;2.17;;;16.80;68.00;;;;;;5019133;28;20393;-86
2023/04/27 12:57:47;;;;;;;6.28;2.67;;;16.90;68.60;;;;;;5018687;28;20092;-85
2023/04/27 13:00:13;;;;;;;5.43;2.55;;;17.00;68.40;;;;;;5001488;28;20045;-86
2023/04/27 13:02:42;;;;;;;4.70;2.80;;;17.20;67.60;;;;;;5019102;28;20478;-86
2023/04/27 13:05:08;;;;;;;6.85;3.00;;;17.30;66.00;;;;;;4986581;28;20495;-87
2023/04/27 13:07:35;;;;;;;4.15;2.47;;;17.30;64.70;;;;;;4986981;28;20114;-86
2023/04/27 13:10:02;;;;;;;6.45;2.88;;;17.40;64.20;;;;;;5002064;28;20037;-85
2023/04/27 13:12:27;;;;;;;4.50;2.53;;;17.40;64.00;;;;;;5003193;28;20034;-86
2023/04/27 13:14:53;;;;;;;5.93;2.47;;;17.40;63.60;;;;;;5055551;28;20022;-85
2023/04/27 13:17:19;;;;;;;5.60;3.00;;;17.50;64.60;;;;;;5005462;28;20053;-86
2023/04/27 13:19:45;;;;;;;4.78;2.92;;;17.50;64.70;;;;;;5022069;28;20053;-87
2023/04/27 13:22:13;;;;;;;4.35;2.58;;;17.60;63.20;;;;;;4996756;28;20022;-88
2023/04/27 13:24:41;;;;;;;6.40;3.00;;;17.60;63.50;;;;;;4990575;28;20053;-88
2023/04/27 13:27:06;;;;;;;6.93;2.80;;;17.70;62.90;;;;;;4998640;28;20393;-86
2023/04/27 13:29:34;;;;;;;7.68;2.97;;;17.70;61.20;;;;;;5015135;28;20034;-86
2023/04/27 13:32:00;;;;;;;5.93;2.83;;;17.60;59.20;;;;;;5009723;28;20032;-86
2023/04/27 13:34:29;;;;;;;3.78;2.20;;;17.50;59.60;;;;;;5001860;28;20030;-87
2023/04/27 13:36:54;;;;;;;4.63;3.00;;;17.50;60.30;;;;;;5017677;28;20351;-85
2023/04/27 13:39:20;;;;;;;6.15;3.03;;;17.50;60.30;;;;;;5000601;28;20083;-84
2023/04/27 13:41:46;;;;;;;6.28;3.08;;;17.50;61.10;;;;;;5017583;28;20025;-86
2023/04/27 13:44:12;;;;;;;4.53;2.70;;;17.60;61.40;;;;;;5005338;28;20384;-85
2023/04/27 13:46:38;;;;;;;4.90;2.80;;;17.60;61.00;;;;;;5004723;28;20041;-85
2023/04/27 13:49:03;;;;;;;5.40;3.58;;;17.60;60.20;;;;;;4964453;28;20036;-85